createdAt,value
2023-01-28T00:02:01.292Z,6.27
2023-01-28T00:04:30.253Z,6.13
2023-01-28T00:06:59.232Z,5.80
2023-01-28T00:09:28.136Z,6.23
2023-01-28T00:11:59.894Z,6.60
2023-01-28T00:14:40.165Z,6.33
2023-01-28T00:17:08.921Z,6.10
2023-01-28T00:19:39.344Z,6.13
2023-01-28T00:22:08.137Z,5.57
2023-01-28T00:24:36.970Z,5.60
2023-01-28T00:27:05.896Z,5.77
2023-01-28T00:29:34.729Z,6.10
2023-01-28T00:32:03.741Z,5.90
2023-01-28T00:34:32.790Z,5.80
2023-01-28T00:37:01.500Z,6.33
2023-01-28T00:39:30.279Z,5.60
2023-01-28T00:41:59.275Z,5.20
2023-01-28T00:44:28.102Z,5.23
2023-01-28T00:47:08.217Z,5.27
2023-01-28T00:49:39.920Z,5.73
2023-01-28T00:52:08.857Z,5.50
2023-01-28T00:54:38.017Z,5.17
2023-01-28T00:57:08.221Z,6.07
2023-01-28T00:59:37.103Z,5.90
2023-01-28T01:02:07.474Z,5.77
2023-01-28T01:04:36.456Z,6.30
2023-01-28T01:07:06.045Z,5.20
2023-01-28T01:09:35.004Z,6.70
2023-01-28T01:12:03.826Z,6.43
2023-01-28T01:14:36.968Z,6.70
2023-01-28T01:17:07.975Z,7.07
2023-01-28T01:19:38.017Z,6.80
2023-01-28T01:22:06.832Z,7.00
2023-01-28T01:24:37.234Z,7.23
2023-01-28T01:27:06.373Z,6.80
2023-01-28T01:29:35.429Z,7.03
2023-01-28T01:32:04.301Z,6.93
2023-01-28T01:34:37.498Z,6.73
2023-01-28T01:37:09.800Z,7.27
2023-01-28T01:39:38.787Z,7.60
2023-01-28T01:42:13.508Z,7.83
2023-01-28T01:45:00.334Z,8.40
2023-01-28T01:47:38.192Z,8.10
2023-01-28T01:50:09.960Z,7.93
2023-01-28T01:52:38.930Z,7.13
2023-01-28T01:55:10.923Z,7.10
2023-01-28T01:57:40.329Z,7.83
2023-01-28T02:00:13.076Z,7.57
2023-01-28T02:02:44.992Z,7.40
2023-01-28T02:05:16.380Z,7.73
2023-01-28T02:07:50.687Z,7.63
2023-01-28T02:10:19.741Z,8.13
2023-01-28T02:13:01.901Z,6.97
2023-01-28T02:15:30.800Z,6.77
2023-01-28T02:17:59.719Z,7.57
2023-01-28T02:20:47.948Z,7.03
2023-01-28T02:23:42.547Z,7.07
2023-01-28T02:26:19.985Z,6.30
2023-01-28T02:28:57.946Z,6.43
2023-01-28T02:31:32.576Z,6.30
2023-01-28T02:37:06.414Z,6.60
2023-01-28T02:39:41.298Z,7.30
2023-01-28T02:42:19.136Z,5.97
2023-01-28T02:44:50.769Z,6.60
2023-01-28T02:47:49.410Z,6.60
2023-01-28T03:01:17.212Z,6.57
2023-01-28T03:10:45.429Z,6.40
2023-01-28T03:19:48.926Z,5.70
2023-01-28T03:20:23.932Z,6.40
2023-01-28T03:23:32.869Z,6.10
2023-01-28T03:30:24.266Z,5.60
2023-01-28T03:33:18.667Z,5.13
2023-01-28T03:36:14.553Z,5.90
2023-01-28T03:52:19.165Z,7.00
2023-01-28T03:55:03.637Z,6.90
2023-01-28T03:57:37.947Z,7.37
2023-01-28T04:16:31.020Z,7.47
2023-01-28T04:25:49.043Z,7.10
2023-01-28T04:31:46.563Z,6.63
2023-01-28T04:54:55.507Z,5.20
2023-01-28T04:57:38.518Z,6.23
2023-01-28T05:09:53.833Z,6.60
2023-01-28T05:47:47.638Z,5.57
2023-01-28T05:50:31.681Z,7.67
2023-01-28T05:53:07.896Z,6.80
2023-01-28T05:55:58.423Z,6.37
2023-01-28T05:58:41.669Z,7.20
2023-01-28T06:01:18.445Z,7.30
2023-01-28T06:03:53.360Z,7.77
2023-01-28T06:39:28.653Z,5.67
2023-01-28T07:14:38.976Z,7.10
2023-01-28T08:17:46.878Z,7.37
2023-01-28T08:20:44.414Z,9.87
2023-01-28T08:23:31.859Z,9.87
2023-01-28T08:36:14.548Z,8.40
2023-01-28T08:38:51.799Z,8.77
2023-01-28T08:51:55.875Z,7.87
2023-01-28T08:54:51.964Z,7.70
2023-01-28T09:00:11.792Z,8.13
2023-01-28T09:02:59.502Z,8.33
2023-01-28T09:05:28.323Z,8.33
2023-01-28T09:08:02.942Z,6.93
2023-01-28T09:10:31.804Z,7.40
2023-01-28T09:13:02.782Z,8.30
2023-01-28T09:15:36.287Z,8.23
2023-01-28T09:18:07.970Z,6.80
2023-01-28T09:21:01.811Z,6.87
2023-01-28T09:23:41.363Z,11.43
2023-01-28T09:29:32.588Z,7.33
2023-01-28T09:32:53.701Z,9.20
2023-01-28T09:35:23.532Z,9.27
2023-01-28T09:38:09.079Z,9.33
2023-01-28T09:47:42.349Z,9.23
2023-01-28T09:53:50.359Z,9.27
2023-01-28T09:56:19.255Z,8.33
2023-01-28T09:58:48.403Z,7.77
2023-01-28T10:01:46.949Z,10.37
2023-01-28T10:04:37.564Z,10.73
2023-01-28T10:08:02.134Z,10.40
2023-01-28T10:10:39.282Z,8.23
2023-01-28T10:13:14.689Z,10.77
2023-01-28T10:16:07.836Z,11.43
2023-01-28T10:18:45.189Z,11.30
2023-01-28T10:21:50.008Z,9.40
2023-01-28T10:28:23.251Z,10.17
2023-01-28T10:30:52.960Z,10.73
2023-01-28T10:33:38.716Z,10.87
2023-01-28T10:40:39.974Z,10.17
2023-01-28T11:03:23.102Z,8.73
2023-01-28T11:04:54.019Z,10.57
2023-01-28T12:52:12.969Z,9.17
2023-01-28T13:43:43.787Z,7.17
2023-01-28T13:46:23.232Z,9.50
2023-01-28T13:51:19.800Z,8.20
2023-01-28T14:20:53.240Z,9.47
2023-01-28T14:23:22.662Z,8.23
2023-01-28T14:32:24.460Z,9.43
2023-01-28T14:35:11.478Z,9.67
2023-01-28T14:38:06.950Z,9.60
2023-01-28T14:44:19.916Z,8.77
2023-01-28T14:50:30.867Z,7.87
2023-01-28T14:53:16.341Z,8.67
2023-01-28T14:56:08.367Z,5.63
2023-01-28T14:58:46.538Z,7.77
2023-01-28T15:01:44.460Z,8.37
2023-01-28T15:04:41.449Z,6.90
2023-01-28T15:07:22.079Z,7.23
2023-01-28T15:10:06.079Z,7.47
2023-01-28T15:12:37.461Z,7.50
2023-01-28T15:15:15.489Z,6.73
2023-01-28T15:17:44.951Z,6.90
2023-01-28T15:20:19.509Z,10.43
2023-01-28T15:22:53.282Z,8.90
2023-01-28T15:25:25.881Z,9.70
2023-01-28T15:28:04.692Z,8.10
2023-01-28T15:30:37.549Z,8.87
2023-01-28T15:33:14.368Z,6.97
2023-01-28T15:42:16.799Z,8.60
2023-01-28T15:57:57.802Z,9.23
2023-01-28T16:07:27.177Z,7.80
2023-01-28T16:10:16.322Z,8.13
2023-01-28T16:15:37.753Z,8.00
2023-01-28T16:18:45.443Z,9.23
2023-01-28T16:22:26.472Z,9.47
2023-01-28T16:24:40.877Z,8.80
2023-01-28T16:36:20.832Z,8.93
2023-01-28T16:39:19.996Z,8.17
2023-01-28T16:41:46.920Z,7.93
2023-01-28T16:44:18.725Z,8.87
2023-01-28T16:46:47.839Z,9.20
2023-01-28T16:49:22.296Z,7.77
2023-01-28T16:51:59.073Z,8.30
2023-01-28T16:54:46.988Z,9.10
2023-01-28T16:57:23.519Z,8.33
2023-01-28T17:05:43.277Z,9.60
2023-01-28T17:19:00.456Z,9.60
2023-01-28T17:28:20.980Z,9.97
2023-01-28T17:30:58.618Z,9.70
2023-01-28T17:33:38.775Z,8.73
2023-01-28T17:36:09.406Z,10.07
2023-01-28T17:41:37.222Z,8.37
2023-01-28T17:44:08.033Z,8.60
2023-01-28T17:46:40.124Z,7.93
2023-01-28T17:49:17.738Z,8.17
2023-01-28T17:51:53.295Z,8.53
2023-01-28T17:57:41.700Z,9.33
2023-01-28T18:00:13.304Z,8.07
2023-01-28T18:02:43.976Z,8.23
2023-01-28T18:05:37.502Z,8.53
2023-01-28T18:08:07.895Z,7.10
2023-01-28T18:10:45.506Z,10.30
2023-01-28T18:13:16.359Z,7.20
2023-01-28T18:15:58.226Z,9.43
2023-01-28T18:18:30.341Z,8.10
2023-01-28T18:21:12.145Z,9.40
2023-01-28T18:23:44.854Z,10.00
2023-01-28T18:26:17.254Z,10.33
2023-01-28T18:29:06.114Z,10.53
2023-01-28T18:31:35.244Z,10.53
2023-01-28T18:34:07.835Z,12.97
2023-01-28T18:36:38.553Z,9.80
2023-01-28T18:39:32.240Z,10.67
2023-01-28T18:42:01.279Z,8.20
2023-01-28T18:44:34.494Z,10.67
2023-01-28T18:47:06.317Z,9.70
2023-01-28T18:49:43.385Z,9.70
2023-01-28T18:52:15.026Z,7.90
2023-01-28T18:54:51.360Z,7.90
2023-01-28T18:57:21.408Z,8.80
2023-01-28T18:59:52.129Z,8.57
2023-01-28T19:02:31.637Z,10.53
2023-01-28T19:05:08.457Z,7.80
2023-01-28T19:07:39.087Z,9.97
2023-01-28T19:10:12.393Z,9.80
2023-01-28T19:13:00.535Z,9.97
2023-01-28T19:15:44.933Z,11.87
2023-01-28T19:18:19.491Z,10.60
2023-01-28T19:20:48.826Z,10.97
2023-01-28T19:23:17.884Z,14.30
2023-01-28T19:25:54.088Z,14.47
2023-01-28T19:28:27.545Z,10.20
2023-01-28T19:31:00.693Z,10.70
2023-01-28T19:33:42.254Z,9.17
2023-01-28T19:36:14.084Z,10.13
2023-01-28T20:15:09.331Z,10.40
2023-01-28T20:27:27.015Z,11.70
2023-01-28T20:29:55.817Z,11.30
2023-01-28T20:32:26.947Z,9.67
2023-01-28T20:35:01.350Z,9.03
2023-01-28T20:37:30.226Z,7.73
2023-01-28T20:40:01.961Z,10.90
2023-01-28T20:42:32.794Z,10.43
2023-01-28T20:45:04.362Z,12.37
2023-01-28T20:47:34.388Z,12.53
2023-01-28T20:50:05.700Z,10.07
2023-01-28T20:52:34.635Z,14.57
2023-01-28T20:55:03.393Z,12.60
2023-01-28T20:57:35.597Z,10.07
2023-01-28T21:00:14.764Z,10.43
2023-01-28T21:02:46.224Z,10.33
2023-01-28T21:05:17.209Z,10.87
2023-01-28T21:07:47.939Z,10.10
2023-01-28T21:10:20.455Z,11.57
2023-01-28T21:12:52.974Z,11.13
2023-01-28T21:15:24.292Z,11.47
2023-01-28T21:17:59.101Z,11.23
2023-01-28T21:20:23.458Z,11.83
2023-01-28T21:25:50.608Z,12.97
2023-01-28T21:28:20.773Z,14.90
2023-01-28T21:30:49.645Z,12.77
2023-01-28T21:33:26.436Z,12.33
2023-01-28T21:35:55.295Z,11.00
2023-01-28T21:38:26.987Z,12.27
2023-01-28T21:41:00.658Z,12.60
2023-01-28T21:46:42.925Z,11.33
2023-01-28T21:49:16.072Z,10.57
2023-01-28T21:51:47.954Z,10.63
2023-01-28T21:54:23.486Z,17.23
2023-01-28T21:56:53.860Z,13.03
2023-01-28T21:59:31.834Z,12.33
2023-01-28T22:02:18.110Z,11.33
2023-01-28T22:04:54.030Z,9.97
2023-01-28T22:07:25.717Z,11.00
2023-01-28T22:09:56.886Z,10.70
2023-01-28T22:12:28.616Z,11.40
2023-01-28T22:15:01.810Z,12.43
2023-01-28T22:17:33.029Z,10.00
2023-01-28T22:20:01.920Z,10.60
2023-01-28T22:22:34.063Z,11.27
2023-01-28T22:27:45.862Z,11.60
2023-01-28T22:30:15.336Z,10.37
2023-01-28T22:32:44.333Z,10.63
2023-01-28T22:35:37.888Z,9.67
2023-01-28T22:38:09.177Z,8.73
2023-01-28T22:40:52.771Z,10.23
2023-01-28T22:43:37.461Z,9.97
2023-01-28T22:46:07.245Z,10.37
2023-01-28T22:48:37.889Z,11.30
2023-01-28T22:51:09.030Z,9.57
2023-01-28T22:53:37.714Z,11.23
2023-01-28T22:56:08.933Z,10.53
2023-01-28T22:58:38.751Z,10.37
2023-01-28T23:01:08.035Z,9.40
2023-01-28T23:03:37.990Z,8.50
2023-01-28T23:06:06.794Z,10.97
2023-01-28T23:08:35.525Z,9.97
2023-01-28T23:11:04.633Z,9.47
2023-01-28T23:13:37.953Z,8.83
2023-01-28T23:16:30.705Z,10.23
2023-01-28T23:19:20.538Z,9.27
2023-01-28T23:22:08.837Z,7.93
2023-01-28T23:24:40.736Z,10.60
2023-01-28T23:27:09.549Z,9.67
2023-01-28T23:29:40.796Z,10.43
2023-01-28T23:32:14.697Z,9.03
2023-01-28T23:34:46.319Z,9.97
2023-01-28T23:37:15.937Z,10.33
2023-01-28T23:39:44.525Z,9.93
2023-01-28T23:42:16.108Z,10.30
2023-01-28T23:44:44.845Z,9.20
2023-01-28T23:47:13.909Z,9.20
2023-01-28T23:49:42.915Z,7.43
2023-01-28T23:52:13.229Z,10.93
2023-01-28T23:54:41.901Z,10.63
2023-01-28T23:57:10.515Z,9.90
2023-01-28T23:59:39.149Z,9.20
